Thunder radar more information blitzortung!


Radar de pluja more information rain snow radar


Visita la nostra xarxa de llocs de meteo:

Template documentation
and downloads

And another site



No particular awareness of the weather is required.    There are no Weather-warnings

Pagina Historial Weather Underground text

Diari Resum May 23, 2016 Unitats:  Mètric    Imperial   Tant
« Previous Dia
SegĂźent Dia »
Diari Setmana Mensual Anual Personalitzada
  Maxima: Minima: Media:
Temperatura: 24.0 °C 10.2 °C 18 °C
Punt de rosada: 10.7 °C 2.2 °C 5.2 °C
Humitat: 85 % 27 % 45 %
Wind Speed: 23.0 km/h 0.0 km/h 8.7 km/h
RĂ fegues de vent: 32.2 km/h - -
Vent:- - South
Pression baro: 1023.9 hPa 1018.8 hPa -
Precipitacions: 0.0 mm    
Historical Graphs
 
 
Dades de taula per May 23, 2016
Temps Temperatura Punt de rosada Pression baro Vent Wind Speed RĂ fegues de vent Humitat Rainfall Rate (Hourly)
00:00 10.9 °C 2.4 °C 1019.9 hPa West 4.8 km/h 11.3 km/h 56 % 0.0 mm
00:02 13.3 °C 10.7 °C 1018.8 hPa ENE 15.6 km/h 15.6 km/h 84 % 0.0 mm
00:07 13.2 °C 10.6 °C 1018.8 hPa ENE 15.6 km/h 15.6 km/h 84 % 0.0 mm
00:10 10.8 °C 2.4 °C 1019.9 hPa WNW 4.8 km/h 8.0 km/h 56 % 0.0 mm
00:12 13.2 °C 10.7 °C 1018.8 hPa ENE 15.6 km/h 15.6 km/h 85 % 0.0 mm
00:17 13.2 °C 10.7 °C 1018.8 hPa ENE 15.6 km/h 15.6 km/h 85 % 0.0 mm
00:20 10.8 °C 2.4 °C 1019.9 hPa West 4.8 km/h 8.0 km/h 56 % 0.0 mm
00:22 13.1 °C 10.4 °C 1018.8 hPa ENE 15.6 km/h 15.6 km/h 84 % 0.0 mm
00:27 12.8 °C 10.2 °C 1018.8 hPa ENE 15.6 km/h 15.6 km/h 84 % 0.0 mm
00:30 10.6 °C 2.2 °C 1019.9 hPa WSW 3.2 km/h 9.7 km/h 56 % 0.0 mm
00:40 10.5 °C 2.3 °C 1020.9 hPa WSW 3.2 km/h 4.8 km/h 57 % 0.0 mm
00:50 10.4 °C 2.5 °C 1020.9 hPa NW 4.8 km/h 8.0 km/h 58 % 0.0 mm
01:00 10.4 °C 2.5 °C 1020.9 hPa North 3.2 km/h 8.0 km/h 58 % 0.0 mm
01:10 10.3 °C 2.4 °C 1021.9 hPa North 3.2 km/h 6.4 km/h 58 % 0.0 mm
01:20 10.2 °C 2.3 °C 1021.9 hPa NNW 4.8 km/h 4.8 km/h 58 % 0.0 mm
01:30 10.2 °C 2.3 °C 1021.9 hPa West 4.8 km/h 6.4 km/h 58 % 0.0 mm
01:40 10.2 °C 2.3 °C 1022.9 hPa WSW 4.8 km/h 6.4 km/h 58 % 0.0 mm
01:50 10.2 °C 2.3 °C 1021.9 hPa WSW 3.2 km/h 3.2 km/h 58 % 0.0 mm
02:00 10.3 °C 2.6 °C 1021.9 hPa West 3.2 km/h 4.8 km/h 59 % 0.0 mm
02:10 10.3 °C 2.6 °C 1020.9 hPa SSW 3.2 km/h 3.2 km/h 59 % 0.0 mm
02:20 10.3 °C 2.9 °C 1021.9 hPa SSE 3.2 km/h 6.4 km/h 60 % 0.0 mm
02:30 10.5 °C 3.1 °C 1021.9 hPa SSE 4.8 km/h 4.8 km/h 60 % 0.0 mm
02:40 10.7 °C 3.2 °C 1021.9 hPa South 4.8 km/h 4.8 km/h 60 % 0.0 mm
02:50 10.8 °C 3.3 °C 1022.9 hPa SW 3.2 km/h 3.2 km/h 60 % 0.0 mm
03:00 11.0 °C 3.5 °C 1022.9 hPa WSW 1.6 km/h 4.8 km/h 60 % 0.0 mm
03:10 11.3 °C 3.6 °C 1022.9 hPa SW 1.6 km/h 3.2 km/h 59 % 0.0 mm
03:20 11.9 °C 3.9 °C 1022.9 hPa ENE 3.2 km/h 4.8 km/h 58 % 0.0 mm
03:30 12.3 °C 4.3 °C 1022.9 hPa NE 4.8 km/h 6.4 km/h 58 % 0.0 mm
03:40 12.5 °C 4.4 °C 1022.9 hPa NE 3.2 km/h 6.4 km/h 58 % 0.0 mm
03:50 12.6 °C 4.3 °C 1022.9 hPa NE 3.2 km/h 6.4 km/h 57 % 0.0 mm
04:00 13.0 °C 4.7 °C 1022.9 hPa NE 1.6 km/h 6.4 km/h 57 % 0.0 mm
04:10 13.0 °C 4.4 °C 1022.9 hPa NNE 1.6 km/h 6.4 km/h 56 % 0.0 mm
04:20 14.0 °C 5.3 °C 1022.9 hPa West 3.2 km/h 9.7 km/h 56 % 0.0 mm
04:30 14.1 °C 5.4 °C 1022.9 hPa NE 3.2 km/h 6.4 km/h 56 % 0.0 mm
04:40 14.6 °C 5.9 °C 1021.9 hPa NE 1.6 km/h 4.8 km/h 56 % 0.0 mm
04:50 14.7 °C 5.7 °C 1021.9 hPa NNE 3.2 km/h 9.7 km/h 55 % 0.0 mm
05:00 15.3 °C 6.3 °C 1021.9 hPa NNE 4.8 km/h 6.4 km/h 55 % 0.0 mm
05:10 15.4 °C 6.1 °C 1022.9 hPa NNE 4.8 km/h 6.4 km/h 54 % 0.0 mm
05:20 15.4 °C 6.1 °C 1022.9 hPa NE 4.8 km/h 9.7 km/h 54 % 0.0 mm
10:25 15.4 °C 6.1 °C 1022.9 hPa North 4.7 km/h 5.0 km/h 54 % 0.0 mm
10:30 15.3 °C 6.1 °C 1022.9 hPa ESE 5.6 km/h 5.6 km/h 54 % 0.0 mm
10:35 15.3 °C 6.1 °C 1022.9 hPa SSE 9.5 km/h 9.5 km/h 54 % 0.0 mm
10:40 15.6 °C 6.3 °C 1022.9 hPa ENE 3.7 km/h 3.7 km/h 54 % 0.0 mm
10:45 15.8 °C 6.2 °C 1022.9 hPa NE 7.4 km/h 7.4 km/h 53 % 0.0 mm
10:50 15.8 °C 6.2 °C 1022.9 hPa WNW 2.6 km/h   53 % 0.0 mm
10:55 16.6 °C 7.2 °C 1022.9 hPa East 3.7 km/h 3.7 km/h 54 % 0.0 mm
11:00 17.0 °C 7.1 °C 1022.9 hPa South 4.2 km/h 4.2 km/h 52 % 0.0 mm
11:05 16.9 °C 7.3 °C 1022.9 hPa East 7.4 km/h 7.4 km/h 53 % 0.0 mm
11:10 16.7 °C 7.1 °C 1022.9 hPa East 9.5 km/h 9.5 km/h 53 % 0.0 mm
11:15 16.6 °C 6.7 °C 1022.9 hPa ENE 5.0 km/h 5.0 km/h 52 % 0.0 mm
11:20 16.8 °C 6.9 °C 1021.9 hPa East 5.6 km/h 5.6 km/h 52 % 0.0 mm
11:25 17.0 °C 6.8 °C 1021.9 hPa NNE 5.6 km/h 5.6 km/h 51 % 0.0 mm
11:30 17.9 °C 7.6 °C 1021.9 hPa NE 5.6 km/h 5.6 km/h 51 % 0.0 mm
11:35 18.1 °C 7.5 °C 1021.9 hPa WSW 9.3 km/h 9.3 km/h 50 % 0.0 mm
11:40 18.6 °C 7.9 °C 1021.9 hPa WSW 5.6 km/h 5.6 km/h 50 % 0.0 mm
11:45 18.8 °C 7.8 °C 1021.9 hPa WSW 7.4 km/h 7.4 km/h 49 % 0.0 mm
11:50 18.7 °C 7.2 °C 1021.9 hPa WNW 9.3 km/h 9.3 km/h 47 % 0.0 mm
11:55 19.0 °C 6.8 °C 1021.9 hPa WSW 13.0 km/h 13.0 km/h 45 % 0.0 mm
12:00 18.9 °C 6.4 °C 1021.9 hPa NNW 11.1 km/h 11.1 km/h 44 % 0.0 mm
12:05 18.9 °C 6.4 °C 1022.9 hPa WNW 11.1 km/h 11.1 km/h 44 % 0.0 mm
12:10 19.1 °C 5.9 °C 1022.9 hPa NNE 8.7 km/h 8.7 km/h 42 % 0.0 mm
12:15 19.5 °C 6.2 °C 1022.9 hPa WSW 11.1 km/h 11.1 km/h 42 % 0.0 mm
12:20 20.0 °C 6.7 °C 1022.9 hPa WSW 7.4 km/h 7.4 km/h 42 % 0.0 mm
12:25 19.9 °C 6.6 °C 1022.9 hPa WSW 9.3 km/h 9.3 km/h 42 % 0.0 mm
12:30 20.3 °C 6.6 °C 1022.9 hPa SW 5.6 km/h 5.6 km/h 41 % 0.0 mm
12:35 19.9 °C 5.2 °C 1022.9 hPa SW 14.8 km/h 14.8 km/h 38 % 0.0 mm
12:40 20.0 °C 5.2 °C 1022.9 hPa West 9.7 km/h 9.7 km/h 38 % 0.0 mm
12:45 20.1 °C 5.3 °C 1022.9 hPa SSW 9.7 km/h 9.7 km/h 38 % 0.0 mm
12:50 20.1 °C 5.3 °C 1023.9 hPa SW 11.9 km/h 11.9 km/h 38 % 0.0 mm
12:55 20.1 °C 5.3 °C 1023.9 hPa NW 7.4 km/h 7.4 km/h 38 % 0.0 mm
13:00 20.1 °C 5.3 °C 1023.9 hPa SW 14.8 km/h 14.8 km/h 38 % 0.0 mm
13:05 20.1 °C 5.3 °C 1022.9 hPa SW 11.1 km/h 11.1 km/h 38 % 0.0 mm
13:10 20.1 °C 5.3 °C 1022.9 hPa WSW 9.3 km/h 9.3 km/h 38 % 0.0 mm
13:15 20.1 °C 5.3 °C 1022.9 hPa West 6.1 km/h 6.1 km/h 38 % 0.0 mm
13:20 20.1 °C 5.3 °C 1022.9 hPa WSW 11.1 km/h 11.1 km/h 38 % 0.0 mm
13:25 20.1 °C 5.3 °C 1022.9 hPa WSW 9.3 km/h 9.3 km/h 38 % 0.0 mm
13:30 20.1 °C 5.3 °C 1022.9 hPa SW 14.8 km/h 14.8 km/h 38 % 0.0 mm
13:35 20.9 °C 4.0 °C 1022.9 hPa WSW 11.1 km/h 11.1 km/h 33 % 0.0 mm
13:40 20.9 °C 4.0 °C 1022.9 hPa SSW 11.1 km/h 11.1 km/h 33 % 0.0 mm
13:45 20.9 °C 4.0 °C 1022.9 hPa SW 14.8 km/h 14.8 km/h 33 % 0.0 mm
13:50 20.9 °C 4.0 °C 1022.9 hPa SSW 9.3 km/h 9.3 km/h 33 % 0.0 mm
13:55 20.9 °C 4.0 °C 1022.9 hPa SW 11.1 km/h 11.1 km/h 33 % 0.0 mm
14:00 20.9 °C 4.0 °C 1022.9 hPa West 11.1 km/h 11.1 km/h 33 % 0.0 mm
14:05 20.9 °C 4.0 °C 1022.9 hPa West 9.3 km/h 9.3 km/h 33 % 0.0 mm
14:10 20.9 °C 4.0 °C 1022.9 hPa WNW 3.7 km/h 3.9 km/h 33 % 0.0 mm
14:15 20.9 °C 4.0 °C 1022.9 hPa WNW 7.4 km/h 7.4 km/h 33 % 0.0 mm
14:20 20.9 °C 4.0 °C 1022.9 hPa WSW 13.0 km/h 13.0 km/h 33 % 0.0 mm
14:25 20.9 °C 4.0 °C 1022.9 hPa NNE 9.3 km/h 9.3 km/h 33 % 0.0 mm
14:30 20.9 °C 4.0 °C 1022.9 hPa SW 5.6 km/h 5.6 km/h 33 % 0.0 mm
14:35 20.9 °C 4.0 °C 1022.9 hPa WSW 11.1 km/h 11.1 km/h 33 % 0.0 mm
14:40 20.9 °C 4.0 °C 1022.9 hPa West 7.4 km/h 7.4 km/h 33 % 0.0 mm
14:45 22.9 °C 4.9 °C 1022.9 hPa SSW 3.9 km/h 3.9 km/h 31 % 0.0 mm
14:50 23.3 °C 4.7 °C 1021.9 hPa West 7.4 km/h 7.4 km/h 30 % 0.0 mm
14:55 23.2 °C 4.7 °C 1021.9 hPa WNW 4.7 km/h 4.7 km/h 30 % 0.0 mm
15:00 23.2 °C 4.7 °C 1021.9 hPa WSW 7.4 km/h 7.4 km/h 30 % 0.0 mm
15:05 23.2 °C 4.7 °C 1021.9 hPa SW 13.0 km/h 13.0 km/h 30 % 0.0 mm
15:10 23.2 °C 4.7 °C 1021.9 hPa WSW 7.4 km/h 7.4 km/h 30 % 0.0 mm
15:15 23.2 °C 4.7 °C 1021.9 hPa NE 9.3 km/h 9.3 km/h 30 % 0.0 mm
15:20 23.2 °C 4.7 °C 1021.9 hPa SW 11.1 km/h 11.1 km/h 30 % 0.0 mm
15:25 23.6 °C 4.5 °C 1021.9 hPa SW 13.0 km/h 13.0 km/h 29 % 0.0 mm
15:30 23.6 °C 4.5 °C 1021.9 hPa SW 9.3 km/h 9.3 km/h 29 % 0.0 mm
15:35 23.8 °C 4.2 °C 1020.9 hPa SW 7.4 km/h 7.4 km/h 28 % 0.0 mm
15:40 23.8 °C 4.2 °C 1020.9 hPa WSW 11.1 km/h 11.1 km/h 28 % 0.0 mm
15:45 24.0 °C 3.8 °C 1020.9 hPa SW 15.6 km/h 15.6 km/h 27 % 0.0 mm
15:55 24.0 °C 3.8 °C 1021.9 hPa SW 8.7 km/h 8.7 km/h 27 % 0.0 mm
16:00 24.0 °C 3.8 °C 1021.9 hPa SW 7.4 km/h 7.4 km/h 27 % 0.0 mm
16:05 24.0 °C 3.8 °C 1021.9 hPa SW 13.7 km/h 13.7 km/h 27 % 0.0 mm
16:10 24.0 °C 3.8 °C 1021.9 hPa SW 13.0 km/h 13.0 km/h 27 % 0.0 mm
16:15 24.0 °C 3.8 °C 1021.9 hPa WSW 16.7 km/h 16.7 km/h 27 % 0.0 mm
16:20 24.0 °C 3.8 °C 1020.9 hPa SW 14.0 km/h 14.0 km/h 27 % 0.0 mm
16:25 24.0 °C 3.8 °C 1020.9 hPa SSW 9.3 km/h 9.3 km/h 27 % 0.0 mm
16:30 24.0 °C 3.8 °C 1020.9 hPa SSW 13.0 km/h 13.0 km/h 27 % 0.0 mm
16:35 24.0 °C 3.8 °C 1020.9 hPa WSW 13.0 km/h 13.0 km/h 27 % 0.0 mm
16:40 24.0 °C 3.8 °C 1020.9 hPa SSW 16.4 km/h 16.4 km/h 27 % 0.0 mm
16:45 23.3 °C 4.3 °C 1020.9 hPa South 15.6 km/h 15.6 km/h 29 % 0.0 mm
16:50 23.0 °C 4.0 °C 1020.9 hPa SW 16.7 km/h 16.7 km/h 29 % 0.0 mm
16:55 23.2 °C 4.2 °C 1020.9 hPa SW 14.8 km/h 14.8 km/h 29 % 0.0 mm
17:00 23.1 °C 4.1 °C 1020.9 hPa SW 13.0 km/h 13.0 km/h 29 % 0.0 mm
17:05 23.1 °C 4.1 °C 1019.9 hPa SW 11.1 km/h 11.1 km/h 29 % 0.0 mm
17:10 23.2 °C 4.2 °C 1019.9 hPa SSW 13.0 km/h 13.0 km/h 29 % 0.0 mm
17:15 23.1 °C 4.1 °C 1019.9 hPa WSW 13.0 km/h 13.0 km/h 29 % 0.0 mm
17:20 22.8 °C 4.3 °C 1019.9 hPa SW 20.4 km/h 20.4 km/h 30 % 0.0 mm
17:25 22.6 °C 4.1 °C 1019.9 hPa SSW 9.5 km/h 9.5 km/h 30 % 0.0 mm
17:30 22.9 °C 4.9 °C 1019.9 hPa SW 13.0 km/h 13.0 km/h 31 % 0.0 mm
17:35 22.5 °C 4.5 °C 1019.9 hPa SSE 11.1 km/h 11.1 km/h 31 % 0.0 mm
17:40 22.7 °C 4.7 °C 1019.9 hPa SSW 9.3 km/h 9.3 km/h 31 % 0.0 mm
17:45 22.7 °C 4.7 °C 1019.9 hPa SSW 16.7 km/h 16.7 km/h 31 % 0.0 mm
17:50 22.7 °C 4.7 °C 1019.9 hPa SW 8.0 km/h 22.5 km/h 31 % 0.0 mm
17:55 22.6 °C 4.1 °C 1019.9 hPa SW 11.3 km/h 20.9 km/h 30 % 0.0 mm
18:00 22.3 °C 3.9 °C 1019.9 hPa South 22.2 km/h 22.2 km/h 30 % 0.0 mm
18:05 22.1 °C 3.7 °C 1019.9 hPa SW 11.3 km/h 17.7 km/h 30 % 0.0 mm
18:10 22.1 °C 3.7 °C 1019.9 hPa WSW 18.5 km/h 18.5 km/h 30 % 0.0 mm
18:15 22.0 °C 4.1 °C 1019.9 hPa SSW 11.1 km/h 11.1 km/h 31 % 0.0 mm
18:20 21.8 °C 3.9 °C 1019.9 hPa SW 12.9 km/h 32.2 km/h 31 % 0.0 mm
18:25 21.8 °C 3.9 °C 1019.9 hPa SSW 20.4 km/h 20.4 km/h 31 % 0.0 mm
18:30 21.7 °C 3.8 °C 1019.9 hPa WSW 16.7 km/h 16.7 km/h 31 % 0.0 mm
18:35 21.6 °C 3.7 °C 1019.9 hPa WSW 14.0 km/h 14.0 km/h 31 % 0.0 mm
18:40 21.5 °C 3.7 °C 1019.9 hPa South 20.4 km/h 20.4 km/h 31 % 0.0 mm
18:45 21.5 °C 4.1 °C 1019.9 hPa West 18.5 km/h 18.5 km/h 32 % 0.0 mm
18:50 21.2 °C 4.3 °C 1019.9 hPa SW 22.2 km/h 22.2 km/h 33 % 0.0 mm
18:55 20.9 °C 4.4 °C 1019.9 hPa SW 9.7 km/h 25.7 km/h 34 % 0.0 mm
19:00 20.9 °C 4.0 °C 1019.9 hPa WSW 23.0 km/h 23.0 km/h 33 % 0.0 mm
19:05 20.6 °C 3.8 °C 1019.9 hPa SW 14.8 km/h 14.8 km/h 33 % 0.0 mm
19:10 20.7 °C 4.3 °C 1019.9 hPa WSW 9.3 km/h 9.3 km/h 34 % 0.0 mm
19:20 20.4 °C 4.4 °C 1019.9 hPa South 14.8 km/h 14.8 km/h 35 % 0.0 mm
19:25 20.1 °C 4.2 °C 1019.9 hPa WSW 18.5 km/h 18.5 km/h 35 % 0.0 mm
19:30 19.9 °C 4.8 °C 1019.9 hPa SW 8.0 km/h 20.9 km/h 37 % 0.0 mm
19:35 19.8 °C 5.1 °C 1019.9 hPa WSW 20.6 km/h 20.6 km/h 38 % 0.0 mm
19:40 19.4 °C 5.1 °C 1019.9 hPa South 11.1 km/h 11.1 km/h 39 % 0.0 mm
19:45 19.2 °C 5.3 °C 1019.9 hPa SW 11.1 km/h 11.1 km/h 40 % 0.0 mm
19:50 19.0 °C 5.4 °C 1019.9 hPa SW 9.7 km/h 25.7 km/h 41 % 0.0 mm
19:55 18.7 °C 5.9 °C 1019.9 hPa SW 9.7 km/h 12.9 km/h 43 % 0.0 mm
20:00 18.5 °C 6.1 °C 1019.9 hPa SW 9.7 km/h 14.5 km/h 44 % 0.0 mm
20:05 18.3 °C 6.2 °C 1019.9 hPa SW 11.3 km/h 17.7 km/h 45 % 0.0 mm
20:10 18.1 °C 6.3 °C 1019.9 hPa WSW 11.1 km/h 11.1 km/h 46 % 0.0 mm
20:15 17.9 °C 6.1 °C 1019.9 hPa SW 8.0 km/h 12.9 km/h 46 % 0.0 mm
20:20 17.8 °C 6.3 °C 1019.9 hPa SW 14.8 km/h 14.8 km/h 47 % 0.0 mm
20:25 17.6 °C 6.4 °C 1019.9 hPa SW 11.3 km/h 19.3 km/h 48 % 0.0 mm
20:30 17.5 °C 6.7 °C 1019.9 hPa SW 14.8 km/h 14.8 km/h 49 % 0.0 mm
20:35 17.3 °C 6.8 °C 1020.9 hPa SW 16.7 km/h 16.7 km/h 50 % 0.0 mm
20:40 17.1 °C 6.6 °C 1020.9 hPa WSW 13.0 km/h 13.0 km/h 50 % 0.0 mm
20:50 16.8 °C 6.6 °C 1020.9 hPa West 9.3 km/h 9.3 km/h 51 % 0.0 mm
21:00 16.6 °C 6.4 °C 1020.9 hPa WNW 3.9 km/h 3.9 km/h 51 % 0.0 mm
21:05 16.6 °C 6.4 °C 1020.9 hPa WNW 3.7 km/h 3.7 km/h 51 % 0.0 mm
21:10 16.3 °C 6.1 °C 1020.9 hPa WSW 5.6 km/h 5.6 km/h 51 % 0.0 mm
21:15 16.2 °C 6.1 °C 1020.9 hPa SSW 5.6 km/h 5.6 km/h 51 % 0.0 mm
21:20 16.1 °C 6.2 °C 1021.9 hPa West 4.2 km/h 4.2 km/h 52 % 0.0 mm
21:25 16.1 °C 6.2 °C 1021.9 hPa West 3.7 km/h 3.7 km/h 52 % 0.0 mm
21:30 16.0 °C 6.2 °C 1021.9 hPa WSW 5.0 km/h 5.0 km/h 52 % 0.0 mm
21:35 16.0 °C 6.4 °C 1021.9 hPa WSW 5.6 km/h 5.6 km/h 53 % 0.0 mm
21:40 15.8 °C 6.2 °C 1021.9 hPa West 5.6 km/h 5.6 km/h 53 % 0.0 mm
21:45 15.8 °C 6.2 °C 1021.9 hPa WSW 3.2 km/h 4.8 km/h 53 % 0.0 mm
21:50 15.6 °C 6.3 °C 1021.9 hPa NNE 1.9 km/h   54 % 0.0 mm
21:55 15.5 °C 5.9 °C 1021.9 hPa SW 3.5 km/h 3.5 km/h 53 % 0.0 mm
22:00 15.3 °C 6.1 °C 1021.9 hPa West 1.9 km/h   54 % 0.0 mm
22:05 15.2 °C 5.9 °C 1021.9 hPa NNE 1.9 km/h 1.9 km/h 54 % 0.0 mm
22:10 15.2 °C 5.9 °C 1021.9 hPa Calm   1.6 km/h 54 % 0.0 mm
22:15 15.2 °C 6.2 °C 1021.9 hPa NE 1.6 km/h 4.8 km/h 55 % 0.0 mm
22:20 15.1 °C 6.1 °C 1021.9 hPa Calm     55 % 0.0 mm
22:25 15.1 °C 6.1 °C 1021.9 hPa NE 3.7 km/h 3.7 km/h 55 % 0.0 mm
22:30 15.1 °C 6.1 °C 1021.9 hPa NNE 1.6 km/h 3.2 km/h 55 % 0.0 mm
22:35 15.1 °C 6.1 °C 1022.9 hPa NNE 1.9 km/h 2.3 km/h 55 % 0.0 mm
22:40 15.1 °C 6.1 °C 1022.9 hPa NNE 4.8 km/h 8.0 km/h 55 % 0.0 mm
22:45 15.1 °C 6.4 °C 1022.9 hPa NE 4.8 km/h 8.0 km/h 56 % 0.0 mm
22:50 15.1 °C 6.6 °C 1022.9 hPa NNE 7.4 km/h 7.4 km/h 57 % 0.0 mm
22:55 15.0 °C 6.6 °C 1022.9 hPa NE 4.8 km/h 8.0 km/h 57 % 0.0 mm
23:00 14.9 °C 6.7 °C 1022.9 hPa NE 5.6 km/h 6.1 km/h 58 % 0.0 mm
23:10 14.7 °C 6.5 °C 1022.9 hPa NNE 7.6 km/h 7.6 km/h 58 % 0.0 mm
23:15 14.7 °C 6.8 °C 1022.9 hPa NE 5.6 km/h 5.6 km/h 59 % 0.0 mm
23:20 14.6 °C 6.9 °C 1022.9 hPa East 5.0 km/h 5.0 km/h 60 % 0.0 mm
23:25 14.5 °C 6.8 °C 1022.9 hPa ENE 3.2 km/h 6.4 km/h 60 % 0.0 mm
23:30 14.3 °C 6.6 °C 1022.9 hPa ENE 3.2 km/h 6.4 km/h 60 % 0.0 mm
23:35 14.3 °C 6.9 °C 1022.9 hPa East 3.2 km/h 4.8 km/h 61 % 0.0 mm
23:40 14.2 °C 6.8 °C 1022.9 hPa East 5.6 km/h 5.6 km/h 61 % 0.0 mm
23:45 14.1 °C 6.9 °C 1022.9 hPa ENE 4.7 km/h 4.7 km/h 62 % 0.0 mm
23:50 14.0 °C 6.8 °C 1022.9 hPa ESE 5.6 km/h 5.6 km/h 62 % 0.0 mm
23:55 14.0 °C 6.8 °C 1022.9 hPa ENE 4.7 km/h 4.7 km/h 62 % 0.0 mm
Meteo Sesrovires
Elogis d' Weather Underground - 3.5 mb

Guio original per  Jim McMurry - jmcmurry@mwt.net Adaptat per a la plantilla per  Wim van der Kuil - Leuven-Template.eu

Trobareu la nostra informacio del temps tambe a:

Weather Underground

AWEKAS